Olmsted Township, Ohio
Current Conditions -  °F | °C
As of 12:58 AM on Sunday 28 Dec 2014 (Local Time) from KCLE Reporting Station
Light Rain Light Rain  
Wind Chill: 36°   Ceiling: 800
Heat Index: 42°   Visibility: 5mi
Dew Point: 39°   Wind: 12mph
Humidity: 89%   Direction: 280°W
Pressure: 30.01"   Gusts: NA
Location:  41.374°N, 81.9211°W
Report Text: KCLE 280558Z 28010KT 5SM -RA BR BKN008 OVC020 06/04 A3001 RMK AO2 P0001 T00560039
Loading
Personal Weather Stations






























Interactive Weather Map New forecast layout! Learn more

10-Day Weather Forecast

Advertisements
Track Severe Weather on mobile